Vernon, Connecticut
Current Conditions -  °F | °C
As of 6:27 PM on Wednesday 22 Oct 2014 (Local Time) from KHFD Reporting Station
Light Rain Light Rain  
Wind Chill: 51°   Ceiling: 2200
Heat Index: 51°   Visibility: 9mi
Dew Point: 47°   Wind: 17mph
Humidity: 86%   Direction: 360°N
Pressure: 29.84"   Gusts: 26mph
Location:  41.837°N, 72.4608°W
Report Text: KHFD 222227Z 36015G23KT 9SM -RA SCT018 BKN022 OVC028 11/08 A2984 RMK AO2 RAB02 P0005 T01060083
Loading
Personal Weather Stations






























Interactive Weather Map
Tropical Storm Tracking
New forecast layout! Learn more

10-Day Weather Forecast

Advertisements
Track Severe Weather on mobile